sensor_id;sensor_type;location;lat;lon;timestamp;temperature;humidity
54946;DHT22;40846;44.788;20.486;2024-02-26T02:28:48;307.40;2304.00
54946;DHT22;40846;44.788;20.486;2024-02-26T02:31:15;307.30;2304.00
54946;DHT22;40846;44.788;20.486;2024-02-26T02:33:41;307.50;2304.00
54946;DHT22;40846;44.788;20.486;2024-02-26T02:36:07;307.30;2304.00
54946;DHT22;40846;44.788;20.486;2024-02-26T02:38:36;307.50;2304.00
54946;DHT22;40846;44.788;20.486;2024-02-26T02:41:02;307.40;2304.00
54946;DHT22;40846;44.788;20.486;2024-02-26T02:43:28;307.50;2304.00
54946;DHT22;40846;44.788;20.486;2024-02-26T02:45:54;307.40;2304.00
54946;DHT22;40846;44.788;20.486;2024-02-26T02:48:19;307.50;2304.00
54946;DHT22;40846;44.788;20.486;2024-02-26T02:50:45;307.50;2304.00
54946;DHT22;40846;44.788;20.486;2024-02-26T02:53:11;307.50;2304.00
54946;DHT22;40846;44.788;20.486;2024-02-26T02:55:37;307.40;2304.00
54946;DHT22;40846;44.788;20.486;2024-02-26T02:58:03;307.40;2304.00
54946;DHT22;40846;44.788;20.486;2024-02-26T03:00:29;307.40;2304.00
54946;DHT22;40846;44.788;20.486;2024-02-26T03:02:55;307.40;2304.00
54946;DHT22;40846;44.788;20.486;2024-02-26T03:05:20;307.50;2304.00
54946;DHT22;40846;44.788;20.486;2024-02-26T03:07:46;307.30;2304.00
54946;DHT22;40846;44.788;20.486;2024-02-26T03:10:12;307.70;2304.00
54946;DHT22;40846;44.788;20.486;2024-02-26T03:24:48;307.80;2304.00
54946;DHT22;40846;44.788;20.486;2024-02-26T03:27:14;307.70;2304.00
54946;DHT22;40846;44.788;20.486;2024-02-26T03:29:40;307.50;2304.00
54946;DHT22;40846;44.788;20.486;2024-02-26T03:32:06;307.50;2304.00
54946;DHT22;40846;44.788;20.486;2024-02-26T03:34:33;307.50;2304.00
54946;DHT22;40846;44.788;20.486;2024-02-26T03:37:02;307.70;2304.00
54946;DHT22;40846;44.788;20.486;2024-02-26T03:39:28;307.50;2304.00
54946;DHT22;40846;44.788;20.486;2024-02-26T03:41:53;307.50;2304.00
54946;DHT22;40846;44.788;20.486;2024-02-26T07:50:46;410.10;2355.20
54946;DHT22;40846;44.788;20.486;2024-02-26T07:53:13;410.00;2355.20
54946;DHT22;40846;44.788;20.486;2024-02-26T07:55:39;410.00;2355.20
54946;DHT22;40846;44.788;20.486;2024-02-26T08:15:10;486.50;2176.00
54946;DHT22;40846;44.788;20.486;2024-02-26T08:32:14;614.50;1433.60
54946;DHT22;40846;44.788;20.486;2024-02-26T09:06:22;717.20;1254.40
54946;DHT22;40846;44.788;20.486;2024-02-26T09:08:47;742.60;1228.80
54946;DHT22;40846;44.788;20.486;2024-02-26T09:11:13;742.90;1228.80
54946;DHT22;40846;44.788;20.486;2024-02-26T09:13:39;742.60;1203.20
54946;DHT22;40846;44.788;20.486;2024-02-26T09:16:06;742.50;1203.20
54946;DHT22;40846;44.788;20.486;2024-02-26T09:18:31;742.90;1177.60
54946;DHT22;40846;44.788;20.486;2024-02-26T09:20:57;768.40;1126.40
54946;DHT22;40846;44.788;20.486;2024-02-26T09:23:23;768.30;1152.00
54946;DHT22;40846;44.788;20.486;2024-02-26T09:25:49;768.30;1126.40
54946;DHT22;40846;44.788;20.486;2024-02-26T09:28:14;768.90;1126.40
54946;DHT22;40846;44.788;20.486;2024-02-26T09:30:44;793.70;1126.40
54946;DHT22;40846;44.788;20.486;2024-02-26T09:33:09;793.90;1100.80
54946;DHT22;40846;44.788;20.486;2024-02-26T09:38:01;768.80;1075.20
54946;DHT22;40846;44.788;20.486;2024-02-26T09:40:28;768.40;1100.80
54946;DHT22;40846;44.788;20.486;2024-02-26T09:45:26;768.50;1100.80
54946;DHT22;40846;44.788;20.486;2024-02-26T09:47:55;768.30;1100.80
54946;DHT22;40846;44.788;20.486;2024-02-26T09:50:22;768.30;1100.80
54946;DHT22;40846;44.788;20.486;2024-02-26T09:52:51;768.10;1100.80
54946;DHT22;40846;44.788;20.486;2024-02-26T09:55:19;768.40;1100.80
54946;DHT22;40846;44.788;20.486;2024-02-26T09:57:46;742.80;1126.40
54946;DHT22;40846;44.788;20.486;2024-02-26T10:00:17;768.50;1126.40
54946;DHT22;40846;44.788;20.486;2024-02-26T10:17:26;743.20;1100.80
54946;DHT22;40846;44.788;20.486;2024-02-26T10:24:48;717.00;1152.00
54946;DHT22;40846;44.788;20.486;2024-02-26T10:44:25;563.80;1408.00
54946;DHT22;40846;44.788;20.486;2024-02-26T10:51:48;563.20;1484.80
54946;DHT22;40846;44.788;20.486;2024-02-26T10:54:16;538.40;1484.80
54946;DHT22;40846;44.788;20.486;2024-02-26T10:56:42;538.30;1484.80
54946;DHT22;40846;44.788;20.486;2024-02-26T11:13:53;538.30;1484.80
54946;DHT22;40846;44.788;20.486;2024-02-26T11:16:23;537.90;1484.80
54946;DHT22;40846;44.788;20.486;2024-02-26T11:18:49;537.60;1510.40
54946;DHT22;40846;44.788;20.486;2024-02-26T11:21:16;537.90;1510.40
54946;DHT22;40846;44.788;20.486;2024-02-26T11:23:48;537.90;1510.40
54946;DHT22;40846;44.788;20.486;2024-02-26T11:26:15;537.90;1484.80
54946;DHT22;40846;44.788;20.486;2024-02-26T11:28:43;537.90;1510.40
54946;DHT22;40846;44.788;20.486;2024-02-26T11:31:10;537.70;1510.40
54946;DHT22;40846;44.788;20.486;2024-02-26T11:33:36;538.10;1510.40
54946;DHT22;40846;44.788;20.486;2024-02-26T11:36:09;537.90;1510.40
54946;DHT22;40846;44.788;20.486;2024-02-26T11:38:35;537.90;1510.40
54946;DHT22;40846;44.788;20.486;2024-02-26T11:41:02;537.90;1510.40
54946;DHT22;40846;44.788;20.486;2024-02-26T11:44:00;538.00;1484.80
54946;DHT22;40846;44.788;20.486;2024-02-26T11:46:30;538.10;1484.80
54946;DHT22;40846;44.788;20.486;2024-02-26T11:51:33;563.30;1510.40
54946;DHT22;40846;44.788;20.486;2024-02-26T14:44:20;512.80;1408.00
54946;DHT22;40846;44.788;20.486;2024-02-26T14:46:46;512.60;1408.00
54946;DHT22;40846;44.788;20.486;2024-02-26T14:49:12;512.60;1433.60
54946;DHT22;40846;44.788;20.486;2024-02-26T14:51:38;512.60;1408.00
54946;DHT22;40846;44.788;20.486;2024-02-26T14:54:04;512.50;1433.60
54946;DHT22;40846;44.788;20.486;2024-02-26T14:56:30;512.40;1433.60
54946;DHT22;40846;44.788;20.486;2024-02-26T14:58:56;512.50;1433.60
54946;DHT22;40846;44.788;20.486;2024-02-26T15:01:22;512.20;1433.60
54946;DHT22;40846;44.788;20.486;2024-02-26T15:03:48;512.30;1459.20
54946;DHT22;40846;44.788;20.486;2024-02-26T15:06:14;512.20;1459.20
54946;DHT22;40846;44.788;20.486;2024-02-26T15:08:40;512.20;1459.20
54946;DHT22;40846;44.788;20.486;2024-02-26T15:11:06;512.20;1459.20
54946;DHT22;40846;44.788;20.486;2024-02-26T15:13:33;512.20;1433.60
54946;DHT22;40846;44.788;20.486;2024-02-26T15:15:59;512.10;1459.20
54946;DHT22;40846;44.788;20.486;2024-02-26T15:18:24;512.10;1459.20
54946;DHT22;40846;44.788;20.486;2024-02-26T15:20:51;512.10;1459.20
54946;DHT22;40846;44.788;20.486;2024-02-26T15:23:17;512.10;1459.20
54946;DHT22;40846;44.788;20.486;2024-02-26T15:25:46;512.00;1459.20
54946;DHT22;40846;44.788;20.486;2024-02-26T15:28:12;512.20;1459.20
54946;DHT22;40846;44.788;20.486;2024-02-26T15:30:40;487.30;1459.20
54946;DHT22;40846;44.788;20.486;2024-02-26T15:33:06;487.30;1459.20
54946;DHT22;40846;44.788;20.486;2024-02-26T15:35:32;487.30;1459.20
54946;DHT22;40846;44.788;20.486;2024-02-26T15:37:58;487.30;1459.20
54946;DHT22;40846;44.788;20.486;2024-02-26T15:40:24;487.10;1459.20
54946;DHT22;40846;44.788;20.486;2024-02-26T15:42:50;487.20;1484.80
54946;DHT22;40846;44.788;20.486;2024-02-26T16:15:05;435.90;1766.40
54946;DHT22;40846;44.788;20.486;2024-02-26T16:17:37;435.60;1792.00
54946;DHT22;40846;44.788;20.486;2024-02-26T16:20:06;435.60;1792.00
54946;DHT22;40846;44.788;20.486;2024-02-26T16:22:34;435.60;1817.60
54946;DHT22;40846;44.788;20.486;2024-02-26T16:25:23;435.50;1817.60
54946;DHT22;40846;44.788;20.486;2024-02-26T16:27:48;435.50;1817.60
54946;DHT22;40846;44.788;20.486;2024-02-26T16:30:14;435.30;1843.20
54946;DHT22;40846;44.788;20.486;2024-02-26T16:32:40;435.40;1843.20
54946;DHT22;40846;44.788;20.486;2024-02-26T16:35:08;435.40;1868.80
54946;DHT22;40846;44.788;20.486;2024-02-26T17:09:35;409.90;2022.40
54946;DHT22;40846;44.788;20.486;2024-02-26T17:12:01;409.80;2022.40
54946;DHT22;40846;44.788;20.486;2024-02-26T17:14:27;409.70;2048.00
54946;DHT22;40846;44.788;20.486;2024-02-26T17:16:57;409.80;2048.00
54946;DHT22;40846;44.788;20.486;2024-02-26T17:19:25;410.10;2048.00
54946;DHT22;40846;44.788;20.486;2024-02-26T17:21:51;409.70;2073.60
54946;DHT22;40846;44.788;20.486;2024-02-26T17:24:18;409.70;2073.60
54946;DHT22;40846;44.788;20.486;2024-02-26T17:26:44;409.70;2073.60
54946;DHT22;40846;44.788;20.486;2024-02-26T17:29:10;409.90;2278.40
54946;DHT22;40846;44.788;20.486;2024-02-26T18:35:17;384.20;2150.40
54946;DHT22;40846;44.788;20.486;2024-02-26T18:37:49;384.00;2150.40
54946;DHT22;40846;44.788;20.486;2024-02-26T18:40:15;384.00;2150.40
54946;DHT22;40846;44.788;20.486;2024-02-26T18:42:42;384.00;2176.00
54946;DHT22;40846;44.788;20.486;2024-02-26T18:45:08;359.30;2201.60
54946;DHT22;40846;44.788;20.486;2024-02-26T18:47:35;359.30;2201.60
54946;DHT22;40846;44.788;20.486;2024-02-26T20:13:09;358.50;2252.80
54946;DHT22;40846;44.788;20.486;2024-02-26T20:15:35;358.50;2252.80
54946;DHT22;40846;44.788;20.486;2024-02-26T20:18:02;358.40;2278.40
54946;DHT22;40846;44.788;20.486;2024-02-26T20:20:28;358.40;2278.40
54946;DHT22;40846;44.788;20.486;2024-02-26T20:22:55;358.40;2278.40
54946;DHT22;40846;44.788;20.486;2024-02-26T20:25:21;358.40;2304.00
54946;DHT22;40846;44.788;20.486;2024-02-26T20:27:47;358.40;2304.00
54946;DHT22;40846;44.788;20.486;2024-02-26T20:30:13;358.40;2329.60
54946;DHT22;40846;44.788;20.486;2024-02-26T20:32:40;333.70;2329.60
54946;DHT22;40846;44.788;20.486;2024-02-26T20:35:06;333.70;2329.60
54946;DHT22;40846;44.788;20.486;2024-02-26T20:37:33;333.70;2329.60
54946;DHT22;40846;44.788;20.486;2024-02-26T20:39:59;333.60;2329.60
54946;DHT22;40846;44.788;20.486;2024-02-26T20:42:25;333.70;2329.60
54946;DHT22;40846;44.788;20.486;2024-02-26T20:52:10;333.60;2329.60
54946;DHT22;40846;44.788;20.486;2024-02-26T20:54:37;333.60;2329.60
54946;DHT22;40846;44.788;20.486;2024-02-26T20:57:03;333.50;2329.60
54946;DHT22;40846;44.788;20.486;2024-02-26T20:59:30;333.50;2329.60
54946;DHT22;40846;44.788;20.486;2024-02-26T21:01:57;333.40;2329.60
54946;DHT22;40846;44.788;20.486;2024-02-26T21:04:23;333.40;2329.60
54946;DHT22;40846;44.788;20.486;2024-02-26T21:06:48;333.40;2329.60
54946;DHT22;40846;44.788;20.486;2024-02-26T21:09:14;333.40;2329.60
54946;DHT22;40846;44.788;20.486;2024-02-26T21:14:06;333.50;2329.60
54946;DHT22;40846;44.788;20.486;2024-02-26T21:16:33;333.40;2329.60
54946;DHT22;40846;44.788;20.486;2024-02-26T21:18:59;333.40;2329.60
54946;DHT22;40846;44.788;20.486;2024-02-26T21:21:26;333.30;2329.60
54946;DHT22;40846;44.788;20.486;2024-02-26T21:23:54;333.40;2329.60
54946;DHT22;40846;44.788;20.486;2024-02-26T21:26:20;333.30;2329.60
54946;DHT22;40846;44.788;20.486;2024-02-26T21:28:45;333.20;2329.60
54946;DHT22;40846;44.788;20.486;2024-02-26T21:31:11;333.30;2329.60
54946;DHT22;40846;44.788;20.486;2024-02-26T21:33:37;333.00;2329.60
54946;DHT22;40846;44.788;20.486;2024-02-26T21:36:03;333.20;2329.60
54946;DHT22;40846;44.788;20.486;2024-02-26T21:38:29;333.50;2329.60
54946;DHT22;40846;44.788;20.486;2024-02-26T21:40:55;333.20;2329.60
54946;DHT22;40846;44.788;20.486;2024-02-26T21:43:21;333.10;2329.60
54946;DHT22;40846;44.788;20.486;2024-02-26T21:45:48;333.30;2329.60
